sensor_id;sensor_type;location;lat;lon;timestamp;P1;durP1;ratioP1;P2;durP2;ratioP2
18473;SDS011;30265;52.408;13.500;2023-02-23T00:07:43;21.85;;;8.77;;
18473;SDS011;30265;52.408;13.500;2023-02-23T00:29:33;26.85;;;9.77;;
18473;SDS011;30265;52.408;13.500;2023-02-23T00:40:33;34.78;;;9.63;;
18473;SDS011;30265;52.408;13.500;2023-02-23T00:51:20;33.58;;;10.75;;
18473;SDS011;30265;52.408;13.500;2023-02-23T01:12:41;41.30;;;11.40;;
18473;SDS011;30265;52.408;13.500;2023-02-23T01:23:18;40.58;;;11.98;;
18473;SDS011;30265;52.408;13.500;2023-02-23T01:34:05;29.10;;;9.93;;
18473;SDS011;30265;52.408;13.500;2023-02-23T01:55:48;30.33;;;11.00;;
18473;SDS011;30265;52.408;13.500;2023-02-23T02:06:25;27.35;;;10.93;;
18473;SDS011;30265;52.408;13.500;2023-02-23T02:17:19;22.17;;;10.27;;
18473;SDS011;30265;52.408;13.500;2023-02-23T02:28:28;43.65;;;12.27;;
18473;SDS011;30265;52.408;13.500;2023-02-23T02:39:06;40.22;;;12.30;;
18473;SDS011;30265;52.408;13.500;2023-02-23T02:50:26;30.73;;;11.27;;
18473;SDS011;30265;52.408;13.500;2023-02-23T03:12:16;37.63;;;12.77;;
18473;SDS011;30265;52.408;13.500;2023-02-23T03:23:06;32.03;;;12.77;;
18473;SDS011;30265;52.408;13.500;2023-02-23T03:33:55;30.63;;;11.88;;
18473;SDS011;30265;52.408;13.500;2023-02-23T03:44:42;30.42;;;11.15;;
18473;SDS011;30265;52.408;13.500;2023-02-23T03:55:28;35.95;;;11.98;;
18473;SDS011;30265;52.408;13.500;2023-02-23T04:06:11;39.17;;;12.77;;
18473;SDS011;30265;52.408;13.500;2023-02-23T04:16:53;28.63;;;10.90;;
18473;SDS011;30265;52.408;13.500;2023-02-23T04:27:15;43.33;;;12.55;;
18473;SDS011;30265;52.408;13.500;2023-02-23T04:37:39;39.53;;;11.43;;
18473;SDS011;30265;52.408;13.500;2023-02-23T04:48:04;38.88;;;13.27;;
18473;SDS011;30265;52.408;13.500;2023-02-23T04:58:36;31.67;;;10.00;;
18473;SDS011;30265;52.408;13.500;2023-02-23T05:09:26;37.55;;;12.05;;
18473;SDS011;30265;52.408;13.500;2023-02-23T05:19:49;33.05;;;13.30;;
18473;SDS011;30265;52.408;13.500;2023-02-23T05:30:11;39.13;;;12.60;;
18473;SDS011;30265;52.408;13.500;2023-02-23T05:40:35;29.08;;;12.10;;
18473;SDS011;30265;52.408;13.500;2023-02-23T05:51:22;36.05;;;11.63;;
18473;SDS011;30265;52.408;13.500;2023-02-23T06:01:49;32.37;;;12.40;;
18473;SDS011;30265;52.408;13.500;2023-02-23T06:12:11;34.78;;;10.95;;
18473;SDS011;30265;52.408;13.500;2023-02-23T06:22:34;34.78;;;11.65;;
18473;SDS011;30265;52.408;13.500;2023-02-23T06:33:21;21.48;;;10.02;;
18473;SDS011;30265;52.408;13.500;2023-02-23T06:44:02;43.17;;;12.27;;
18473;SDS011;30265;52.408;13.500;2023-02-23T06:54:33;28.05;;;12.45;;
18473;SDS011;30265;52.408;13.500;2023-02-23T07:05:13;38.08;;;13.13;;
18473;SDS011;30265;52.408;13.500;2023-02-23T07:26:04;31.48;;;12.20;;
18473;SDS011;30265;52.408;13.500;2023-02-23T07:36:27;31.70;;;13.48;;
18473;SDS011;30265;52.408;13.500;2023-02-23T07:46:52;37.50;;;12.90;;
18473;SDS011;30265;52.408;13.500;2023-02-23T07:57:21;40.15;;;12.77;;
18473;SDS011;30265;52.408;13.500;2023-02-23T08:08:04;44.45;;;14.05;;
18473;SDS011;30265;52.408;13.500;2023-02-23T08:18:29;29.63;;;12.43;;
18473;SDS011;30265;52.408;13.500;2023-02-23T08:28:54;41.95;;;14.05;;
18473;SDS011;30265;52.408;13.500;2023-02-23T08:39:37;30.50;;;12.05;;
18473;SDS011;30265;52.408;13.500;2023-02-23T08:50:11;34.00;;;13.20;;
18473;SDS011;30265;52.408;13.500;2023-02-23T09:00:46;39.22;;;12.82;;
18473;SDS011;30265;52.408;13.500;2023-02-23T09:11:22;33.50;;;11.70;;
18473;SDS011;30265;52.408;13.500;2023-02-23T09:22:06;38.22;;;12.55;;
18473;SDS011;30265;52.408;13.500;2023-02-23T09:32:38;35.05;;;13.05;;
18473;SDS011;30265;52.408;13.500;2023-02-23T09:43:12;41.72;;;14.00;;
18473;SDS011;30265;52.408;13.500;2023-02-23T09:53:52;35.67;;;14.10;;
18473;SDS011;30265;52.408;13.500;2023-02-23T10:04:25;32.95;;;12.48;;
18473;SDS011;30265;52.408;13.500;2023-02-23T10:14:59;32.15;;;11.80;;
18473;SDS011;30265;52.408;13.500;2023-02-23T10:25:56;25.85;;;11.75;;
18473;SDS011;30265;52.408;13.500;2023-02-23T10:36:27;34.43;;;12.73;;
18473;SDS011;30265;52.408;13.500;2023-02-23T10:47:05;28.20;;;11.85;;
18473;SDS011;30265;52.408;13.500;2023-02-23T10:58:07;31.25;;;12.43;;
18473;SDS011;30265;52.408;13.500;2023-02-23T11:08:45;22.00;;;10.13;;
18473;SDS011;30265;52.408;13.500;2023-02-23T11:19:41;23.92;;;10.65;;
18473;SDS011;30265;52.408;13.500;2023-02-23T11:30:27;34.47;;;13.70;;
18473;SDS011;30265;52.408;13.500;2023-02-23T11:52:01;28.45;;;12.52;;
18473;SDS011;30265;52.408;13.500;2023-02-23T12:02:44;26.13;;;11.07;;
18473;SDS011;30265;52.408;13.500;2023-02-23T12:13:33;38.72;;;15.32;;
18473;SDS011;30265;52.408;13.500;2023-02-23T12:24:12;41.70;;;15.17;;
18473;SDS011;30265;52.408;13.500;2023-02-23T12:36:29;33.20;;;13.13;;
18473;SDS011;30265;52.408;13.500;2023-02-23T12:45:52;29.40;;;12.45;;
18473;SDS011;30265;52.408;13.500;2023-02-23T12:56:31;33.10;;;12.98;;
18473;SDS011;30265;52.408;13.500;2023-02-23T13:07:04;34.92;;;14.77;;
18473;SDS011;30265;52.408;13.500;2023-02-23T13:17:55;20.58;;;9.90;;
18473;SDS011;30265;52.408;13.500;2023-02-23T13:28:27;36.60;;;16.42;;
18473;SDS011;30265;52.408;13.500;2023-02-23T13:50:22;28.55;;;11.60;;
18473;SDS011;30265;52.408;13.500;2023-02-23T14:00:54;36.20;;;14.20;;
18473;SDS011;30265;52.408;13.500;2023-02-23T14:11:43;34.08;;;14.38;;
18473;SDS011;30265;52.408;13.500;2023-02-23T14:22:13;21.75;;;11.48;;
18473;SDS011;30265;52.408;13.500;2023-02-23T14:32:53;42.83;;;16.77;;
18473;SDS011;30265;52.408;13.500;2023-02-23T15:30:20;56.20;;;24.00;;
18473;SDS011;30265;52.408;13.500;2023-02-23T15:40:45;65.97;;;24.58;;
18473;SDS011;30265;52.408;13.500;2023-02-23T15:51:13;63.75;;;22.15;;
18473;SDS011;30265;52.408;13.500;2023-02-23T16:01:43;65.13;;;24.77;;
18473;SDS011;30265;52.408;13.500;2023-02-23T16:12:09;72.75;;;26.13;;
18473;SDS011;30265;52.408;13.500;2023-02-23T16:22:33;85.70;;;30.88;;
18473;SDS011;30265;52.408;13.500;2023-02-23T16:33:05;56.92;;;21.83;;
18473;SDS011;30265;52.408;13.500;2023-02-23T16:43:38;94.93;;;31.70;;
18473;SDS011;30265;52.408;13.500;2023-02-23T16:54:01;106.88;;;34.22;;
18473;SDS011;30265;52.408;13.500;2023-02-23T17:04:23;112.88;;;34.38;;
18473;SDS011;30265;52.408;13.500;2023-02-23T17:14:48;101.30;;;33.67;;
18473;SDS011;30265;52.408;13.500;2023-02-23T17:25:10;93.57;;;30.48;;
18473;SDS011;30265;52.408;13.500;2023-02-23T17:35:33;105.65;;;33.40;;
18473;SDS011;30265;52.408;13.500;2023-02-23T17:45:56;105.97;;;34.40;;
18473;SDS011;30265;52.408;13.500;2023-02-23T17:56:19;79.70;;;25.65;;
18473;SDS011;30265;52.408;13.500;2023-02-23T18:06:42;106.57;;;34.33;;
18473;SDS011;30265;52.408;13.500;2023-02-23T18:17:06;128.23;;;41.28;;
18473;SDS011;30265;52.408;13.500;2023-02-23T18:27:27;115.00;;;37.55;;
18473;SDS011;30265;52.408;13.500;2023-02-23T18:37:50;115.15;;;37.15;;
18473;SDS011;30265;52.408;13.500;2023-02-23T18:48:12;141.73;;;42.65;;
18473;SDS011;30265;52.408;13.500;2023-02-23T18:58:36;169.63;;;55.25;;
18473;SDS011;30265;52.408;13.500;2023-02-23T19:08:58;137.90;;;41.90;;
18473;SDS011;30265;52.408;13.500;2023-02-23T19:19:24;119.57;;;38.90;;
18473;SDS011;30265;52.408;13.500;2023-02-23T19:29:46;118.60;;;39.65;;
18473;SDS011;30265;52.408;13.500;2023-02-23T19:40:10;100.43;;;36.90;;
18473;SDS011;30265;52.408;13.500;2023-02-23T19:50:38;80.18;;;28.75;;
18473;SDS011;30265;52.408;13.500;2023-02-23T20:01:06;129.02;;;39.33;;
18473;SDS011;30265;52.408;13.500;2023-02-23T20:11:30;110.75;;;38.35;;
18473;SDS011;30265;52.408;13.500;2023-02-23T20:21:53;77.30;;;28.75;;
18473;SDS011;30265;52.408;13.500;2023-02-23T20:32:15;74.60;;;26.63;;
18473;SDS011;30265;52.408;13.500;2023-02-23T20:42:39;59.55;;;19.92;;
18473;SDS011;30265;52.408;13.500;2023-02-23T20:53:02;70.00;;;17.20;;
18473;SDS011;30265;52.408;13.500;2023-02-23T21:03:26;71.82;;;19.05;;
18473;SDS011;30265;52.408;13.500;2023-02-23T21:13:48;61.33;;;17.23;;
18473;SDS011;30265;52.408;13.500;2023-02-23T21:24:11;100.55;;;22.42;;
18473;SDS011;30265;52.408;13.500;2023-02-23T21:34:34;108.85;;;25.38;;
18473;SDS011;30265;52.408;13.500;2023-02-23T21:44:57;72.68;;;16.63;;
18473;SDS011;30265;52.408;13.500;2023-02-23T21:55:19;79.18;;;20.27;;
18473;SDS011;30265;52.408;13.500;2023-02-23T22:05:43;103.10;;;21.25;;
18473;SDS011;30265;52.408;13.500;2023-02-23T22:16:05;108.18;;;22.55;;
18473;SDS011;30265;52.408;13.500;2023-02-23T22:26:29;69.60;;;16.90;;
18473;SDS011;30265;52.408;13.500;2023-02-23T22:36:51;81.05;;;20.17;;
18473;SDS011;30265;52.408;13.500;2023-02-23T22:47:14;92.43;;;19.45;;
18473;SDS011;30265;52.408;13.500;2023-02-23T22:57:36;99.85;;;20.70;;
18473;SDS011;30265;52.408;13.500;2023-02-23T23:08:00;64.00;;;14.68;;
18473;SDS011;30265;52.408;13.500;2023-02-23T23:18:22;74.75;;;16.92;;
18473;SDS011;30265;52.408;13.500;2023-02-23T23:28:49;90.88;;;19.98;;
18473;SDS011;30265;52.408;13.500;2023-02-23T23:39:12;58.67;;;15.57;;
18473;SDS011;30265;52.408;13.500;2023-02-23T23:49:37;43.80;;;12.57;;
